Portada
METAR-TAF:

METAR-TAF

Aeropuertos :

Aeropuerto Internacional de Zvartnots

Ereván, Armenia

latitud: 40-08-50N, longitud: 044-23-45E, altitud: 865 m

Observación

El informe se hizo hace 9 minutos, a las 13:00 UTC
Viento 12 kt del oeste-suroeste
Temperatura 31°C
Humedad 15%
Presión 1011 hPa
Visibilidad 10 km o más

METAR: UDYZ 191300Z 24012KT 9999 NSC 31/01 Q1011 R09/010070 NOSIG

Hora: 17:09 (13:09 UTC)

Pronóstico

El informe se hizo hace 2 horas y 8 minutos, a las 11:01 UTC
Pronóstico válido del 19 a las 12 UTC al 20 a las 12 UTC
Viento 6 kt del oeste-noroeste
Visibilidad 10 km o más
sin nubes por debajo de 1500 m y sin presencia de cumulonimbus.
Temporalmente
del 19 a las 12 UTC al 19 a las 21 UTC
Viento 20 kt con dirección variable con ráfagas de 30 kt
Escasas nubes a una altura de 4000 ft, Cumulonimbus.

TAF: UDYZ 191101Z 1912/2012 29006KT CAVOK TEMPO 1912/1921 VRB20G30KT FEW040CB

Observaciones y pronósticos meteorológicos de más de 4000 aeropuertos (mensajes METAR y TAF).

Los puntos amarillos y rojos representan las estaciones disponibles.

Ponga el ratón en el punto deseado para ver el nombre de la estación.

Haga clic para ver las observaciones y los pronósticos meteorológicos.

Para cambiar el mapa : haga clic en los botones verdes con una cruz de color negro para hacer un zoom, en el botón verde con un guión para alejar o en las flechas verdes para mapas adyacentes.


METAR-TAF: